Time;durP1;ratioP1;P1;durP2;ratioP2;P2;SDS_P1;SDS_P2;PMS_P1;PMS_P2;Temp;Humidity;BMP_temperature;BMP_pressure;BME280_temperature;BME280_humidity;BME280_pressure;Samples;Min_cycle;Max_cycle;Signal;HPM_P1;HPM_P2
2021/11/23 00:01:08;;;;;;;34.40;23.80;;;;;;;17.03;69.04;101370.16;144992;569;6002;-85
2021/11/23 00:03:35;;;;;;;27.65;22.08;;;;;;;17.02;69.36;101373.66;144992;577;6003;-89
2021/11/23 00:06:01;;;;;;;29.23;23.77;;;;;;;17.01;69.14;101372.78;144992;603;6002;-88
2021/11/23 00:08:28;;;;;;;28.87;22.37;;;;;;;17.01;69.24;101364.03;144992;579;6002;-90
2021/11/23 00:10:55;;;;;;;32.28;24.15;;;;;;;16.95;69.16;101356.94;144992;588;6002;-90
2021/11/23 00:13:22;;;;;;;30.83;23.25;;;;;;;16.98;69.23;101364.84;144992;581;6002;-89
2021/11/23 00:15:48;;;;;;;29.67;22.58;;;;;;;16.93;69.34;101363.91;144992;625;6002;-88
2021/11/23 00:18:15;;;;;;;30.70;22.67;;;;;;;16.94;69.33;101372.66;144992;577;6002;-87
2021/11/23 00:20:44;;;;;;;30.80;22.87;;;;;;;16.91;69.19;101376.13;144992;576;6002;-87
2021/11/23 00:23:11;;;;;;;29.02;22.67;;;;;;;16.87;69.52;101369.94;144992;574;6002;-89
2021/11/23 00:25:39;;;;;;;30.08;22.60;;;;;;;16.84;69.57;101376.88;144992;579;6002;-91
2021/11/23 00:28:10;;;;;;;32.10;22.23;;;;;;;16.82;69.53;101383.84;144992;565;6002;-88
2021/11/23 00:30:38;;;;;;;31.67;23.70;;;;;;;16.77;69.61;101385.50;144992;736;6002;-90
2021/11/23 00:33:05;;;;;;;32.97;24.52;;;;;;;16.61;70.12;101393.13;144992;566;6002;-88
2021/11/23 00:35:32;;;;;;;30.90;24.92;;;;;;;16.53;70.41;101380.75;144992;600;6002;-88
2021/11/23 00:37:59;;;;;;;36.20;26.30;;;;;;;16.53;70.25;101386.91;144992;639;6002;-89
2021/11/23 00:40:26;;;;;;;38.15;27.00;;;;;;;16.54;70.07;101387.78;144992;608;6002;-88
2021/11/23 00:42:54;;;;;;;33.83;25.55;;;;;;;16.52;70.16;101387.75;144992;573;6002;-89
2021/11/23 00:45:21;;;;;;;36.50;27.42;;;;;;;16.50;70.25;101381.59;144992;564;6002;-90
2021/11/23 00:47:47;;;;;;;36.40;28.40;;;;;;;16.44;70.27;101373.66;144992;589;6002;-88
2021/11/23 00:50:16;;;;;;;41.47;29.77;;;;;;;16.47;70.16;101381.56;144992;597;6002;-88
2021/11/23 00:52:44;;;;;;;42.17;29.02;;;;;;;16.40;70.29;101379.69;144992;688;6002;-88
2021/11/23 00:55:12;;;;;;;45.25;31.67;;;;;;;16.38;70.34;101379.66;144992;593;6002;-89
2021/11/23 00:57:38;;;;;;;40.53;30.35;;;;;;;16.37;70.41;101375.28;144992;564;6002;-90
2021/11/23 01:00:08;;;;;;;42.85;31.33;;;;;;;16.36;70.40;101378.75;144992;579;6002;-87
2021/11/23 01:02:35;;;;;;;41.15;31.37;;;;;;;16.37;70.25;101377.91;144992;680;6002;-87
2021/11/23 01:05:05;;;;;;;44.10;31.52;;;;;;;16.36;70.36;101381.38;144992;569;6002;-88
2021/11/23 01:07:32;;;;;;;41.95;30.95;;;;;;;16.34;70.18;101377.84;144992;594;6002;-89
2021/11/23 01:09:59;;;;;;;41.08;30.80;;;;;;;16.32;70.24;101377.84;144992;644;6002;-90
2021/11/23 01:12:26;;;;;;;42.28;32.25;;;;;;;16.31;70.32;101375.19;144992;575;6017;-89
2021/11/23 01:14:52;;;;;;;44.35;31.05;;;;;;;16.28;69.95;101378.63;144992;574;6002;-88
2021/11/23 01:17:19;;;;;;;40.63;30.90;;;;;;;16.27;70.37;101376.88;144992;598;6002;-89
2021/11/23 01:19:46;;;;;;;42.72;32.20;;;;;;;16.27;70.46;101382.13;144992;608;6002;-88
2021/11/23 01:22:13;;;;;;;42.95;32.65;;;;;;;16.25;70.63;101380.31;144992;606;6002;-89
2021/11/23 01:24:39;;;;;;;40.60;31.75;;;;;;;16.25;70.56;101381.19;144992;564;6002;-89
2021/11/23 01:27:06;;;;;;;38.75;30.17;;;;;;;16.25;70.60;101375.06;144992;618;6002;-90
2021/11/23 01:29:33;;;;;;;41.67;31.30;;;;;;;16.26;70.57;101366.38;144992;584;6002;-88
2021/11/23 01:31:59;;;;;;;45.50;31.65;;;;;;;16.21;70.54;101355.81;144992;604;6002;-90
2021/11/23 01:39:37;;;;;;;42.00;30.35;;;;;;;16.34;70.41;101362.13;144992;571;6002;-89
2021/11/23 01:42:04;;;;;;;42.50;30.85;;;;;;;16.31;70.58;101354.22;144992;605;6002;-88
2021/11/23 01:44:31;;;;;;;42.65;31.02;;;;;;;16.22;70.51;101356.69;144992;631;6002;-90
2021/11/23 01:47:01;;;;;;;45.67;31.77;;;;;;;16.24;70.34;101355.87;144992;563;6002;-88
2021/11/23 01:52:00;;;;;;;45.38;32.83;;;;;;;15.96;71.42;101360.62;144992;564;6002;-88
2021/11/23 01:54:29;;;;;;;41.42;31.30;;;;;;;15.80;71.97;101355.97;144992;569;6002;-89
2021/11/23 01:56:56;;;;;;;39.08;30.95;;;;;;;15.83;71.85;101352.50;144992;592;6002;-89
2021/11/23 02:02:09;;;;;;;38.28;28.27;;;;;;;15.83;71.83;101347.25;144992;567;6002;-89
2021/11/23 02:04:40;;;;;;;39.78;29.17;;;;;;;15.90;71.41;101351.78;144992;668;6002;-87
2021/11/23 02:07:07;;;;;;;41.53;30.30;;;;;;;15.91;71.24;101354.41;144992;627;6002;-88
2021/11/23 02:09:34;;;;;;;43.00;29.75;;;;;;;15.86;71.42;101345.59;144992;671;6002;-88
2021/11/23 02:12:04;;;;;;;43.47;30.30;;;;;;;15.91;71.02;101348.31;144992;605;6002;-88
2021/11/23 02:14:34;;;;;;;48.70;31.73;;;;;;;15.92;70.97;101348.34;144992;626;6002;-86
2021/11/23 02:17:09;;;;;;;52.58;31.35;;;;;;;15.90;70.97;101355.25;144992;573;6002;-86
2021/11/23 02:19:49;;;;;;;49.55;32.10;;;;;;;15.87;71.17;101355.22;144992;591;6002;-88
2021/11/23 02:22:18;;;;;;;49.58;32.53;;;;;;;15.95;70.93;101357.97;144991;639;6002;-87
2021/11/23 02:24:45;;;;;;;48.35;32.63;;;;;;;15.94;70.96;101357.09;144992;585;6002;-89
2021/11/23 02:27:11;;;;;;;45.78;31.27;;;;;;;15.94;71.01;101359.72;144992;569;6002;-88
2021/11/23 02:29:38;;;;;;;49.10;31.37;;;;;;;15.90;71.00;101354.38;144992;594;6002;-89
2021/11/23 02:32:05;;;;;;;49.10;30.40;;;;;;;15.78;71.45;101362.91;144992;585;6002;-87
2021/11/23 02:34:32;;;;;;;51.80;31.80;;;;;;;15.63;71.60;101360.84;144992;565;6002;-89
2021/11/23 02:36:58;;;;;;;53.05;31.65;;;;;;;15.42;72.96;101361.31;144992;607;6002;-88
2021/11/23 02:39:25;;;;;;;58.47;33.95;;;;;;;15.44;72.41;101362.22;144992;676;6002;-88
2021/11/23 02:41:52;;;;;;;58.78;33.28;;;;;;;15.50;72.07;101361.47;144992;573;6002;-88
2021/11/23 02:44:18;;;;;;;58.90;33.90;;;;;;;15.59;72.06;101365.13;144992;638;6002;-88
2021/11/23 02:46:45;;;;;;;60.75;34.97;;;;;;;15.62;71.71;101366.94;144992;584;6002;-87
2021/11/23 02:49:11;;;;;;;63.58;35.53;;;;;;;15.62;71.57;101369.56;144992;673;6002;-89
2021/11/23 02:51:38;;;;;;;62.47;34.33;;;;;;;15.61;71.84;101365.16;144992;577;6002;-88
2021/11/23 02:54:08;;;;;;;55.45;33.88;;;;;;;15.63;71.40;101365.19;144992;632;6002;-87
2021/11/23 02:56:35;;;;;;;55.53;34.20;;;;;;;15.67;71.35;101365.28;144992;629;6002;-88
2021/11/23 02:59:02;;;;;;;51.50;32.88;;;;;;;15.74;71.14;101374.12;144992;577;6002;-89
2021/11/23 03:01:28;;;;;;;52.35;32.72;;;;;;;15.74;71.34;101369.78;144992;569;6002;-87
2021/11/23 03:03:55;;;;;;;51.08;32.03;;;;;;;15.74;71.22;101369.78;144992;608;6002;-88
2021/11/23 03:06:22;;;;;;;49.75;31.05;;;;;;;15.74;71.26;101369.78;144992;590;6002;-88
2021/11/23 03:08:51;;;;;;;51.53;32.00;;;;;;;15.76;71.18;101367.19;144992;641;6002;-87
2021/11/23 03:11:20;;;;;;;49.55;32.20;;;;;;;15.75;71.33;101376.78;144992;649;6002;-86
2021/11/23 03:13:47;;;;;;;53.60;32.53;;;;;;;15.76;71.04;101380.28;144992;573;6002;-87
2021/11/23 03:16:15;;;;;;;52.75;30.73;;;;;;;15.73;71.53;101378.50;144992;618;6002;-86
2021/11/23 03:18:42;;;;;;;45.45;29.87;;;;;;;15.78;71.16;101381.25;144992;642;6002;-87
2021/11/23 03:21:08;;;;;;;47.62;30.15;;;;;;;15.78;71.58;101382.13;144992;563;6002;-88
2021/11/23 03:28:42;;;;;;;46.10;29.45;;;;;;;15.77;71.48;101379.47;144992;563;6002;-89
2021/11/23 03:31:09;;;;;;;42.72;28.62;;;;;;;15.87;71.25;101383.13;144992;616;6002;-86
2021/11/23 03:33:38;;;;;;;38.00;26.80;;;;;;;15.69;72.28;101378.41;144991;586;6002;-88
2021/11/23 03:36:07;;;;;;;37.30;24.50;;;;;;;15.43;72.90;101376.16;144992;564;6002;-89
2021/11/23 03:38:39;;;;;;;33.15;23.00;;;;;;;15.23;73.90;101379.22;144992;573;6002;-88
2021/11/23 03:41:06;;;;;;;30.37;21.30;;;;;;;14.98;74.43;101372.56;144992;658;6002;-87
2021/11/23 03:46:04;;;;;;;27.20;20.70;;;;;;;14.91;74.42;101372.44;144991;602;6002;-87
2021/11/23 03:48:32;;;;;;;26.40;19.95;;;;;;;14.96;73.92;101370.81;144992;643;6002;-88
2021/11/23 03:51:04;;;;;;;27.80;20.90;;;;;;;14.95;74.66;101374.25;144992;579;6002;-88
2021/11/23 03:53:31;;;;;;;30.85;22.10;;;;;;;15.00;74.44;101370.91;144992;566;6002;-89
2021/11/23 03:56:06;;;;;;;29.35;21.73;;;;;;;15.08;73.61;101364.94;144992;635;6002;-88
2021/11/23 03:58:37;;;;;;;27.92;21.10;;;;;;;15.10;72.96;101361.53;144992;583;6002;-87
2021/11/23 04:01:03;;;;;;;30.48;22.02;;;;;;;15.11;73.18;101365.00;144992;564;6002;-89
2021/11/23 04:03:32;;;;;;;30.12;22.15;;;;;;;15.09;73.02;101366.72;144992;597;6002;-87
2021/11/23 04:05:58;;;;;;;30.45;21.25;;;;;;;15.10;72.76;101369.37;144991;609;6002;-90
2021/11/23 04:08:28;;;;;;;29.73;21.35;;;;;;;15.05;73.62;101373.63;144992;595;6002;-88
2021/11/23 04:10:55;;;;;;;28.52;22.00;;;;;;;15.10;73.03;101365.87;144992;586;6002;-88
2021/11/23 04:13:23;;;;;;;31.75;22.30;;;;;;;14.98;73.24;101367.34;144992;478;6002;-91
2021/11/23 04:15:51;;;;;;;29.95;21.70;;;;;;;15.08;73.30;101373.69;144992;587;6002;-86
2021/11/23 04:18:18;;;;;;;29.60;20.85;;;;;;;14.96;74.53;101365.56;144992;724;6002;-88
2021/11/23 04:20:45;;;;;;;29.75;22.75;;;;;;;14.87;74.66;101371.47;144992;571;6002;-86
2021/11/23 04:23:12;;;;;;;32.40;23.25;;;;;;;14.87;73.64;101369.75;144992;563;6002;-87
2021/11/23 04:25:39;;;;;;;29.98;22.95;;;;;;;15.07;73.08;101373.66;144992;609;6002;-86
2021/11/23 04:28:06;;;;;;;35.58;25.42;;;;;;;15.21;72.59;101373.09;144992;583;6002;-89
2021/11/23 04:30:34;;;;;;;34.03;24.80;;;;;;;15.32;72.33;101375.94;144992;611;6002;-87
2021/11/23 04:38:12;;;;;;;38.78;27.77;;;;;;;15.41;72.16;101389.22;144992;571;6002;-85
2021/11/23 04:40:42;;;;;;;41.55;29.12;;;;;;;15.43;72.46;101384.00;144992;567;6002;-90
2021/11/23 04:43:09;;;;;;;38.78;28.75;;;;;;;15.42;72.60;101379.63;144992;585;6002;-89
2021/11/23 04:45:37;;;;;;;41.22;28.65;;;;;;;15.44;72.27;101377.03;144992;639;6002;-89
2021/11/23 04:48:08;;;;;;;37.60;28.08;;;;;;;15.52;71.74;101385.91;144992;592;6002;-87
2021/11/23 04:50:35;;;;;;;38.05;27.20;;;;;;;15.56;71.68;101390.38;144992;564;6002;-87
2021/11/23 04:53:23;;;;;;;37.70;27.33;;;;;;;15.60;71.92;101400.03;144992;579;6002;-86
2021/11/23 04:58:24;;;;;;;38.53;27.98;;;;;;;15.79;71.45;101419.63;144992;571;6002;-89
2021/11/23 05:00:53;;;;;;;38.25;27.75;;;;;;;15.84;71.21;101428.44;144992;624;6002;-91
2021/11/23 05:05:55;;;;;;;43.70;30.35;;;;;;;15.66;72.06;101433.31;144992;476;6002;-88
2021/11/23 05:08:29;;;;;;;46.67;30.27;;;;;;;15.54;72.55;101437.44;144992;566;6002;-90
2021/11/23 05:10:56;;;;;;;47.90;30.92;;;;;;;15.51;72.97;101439.09;144992;628;6002;-89
2021/11/23 05:13:33;;;;;;;51.78;32.70;;;;;;;15.53;72.22;101440.91;144992;650;6002;-89
2021/11/23 05:18:36;;;;;;;52.55;32.83;;;;;;;15.66;71.93;101422.84;144993;567;6002;-88
2021/11/23 05:21:02;;;;;;;57.35;34.97;;;;;;;15.73;71.65;101412.53;144993;587;6002;-88
2021/11/23 05:23:29;;;;;;;52.28;33.83;;;;;;;15.77;71.70;101416.09;144993;692;6002;-88
2021/11/23 05:25:58;;;;;;;55.80;34.00;;;;;;;15.77;71.40;101410.88;144993;571;6002;-89
2021/11/23 05:28:26;;;;;;;58.90;35.25;;;;;;;15.78;71.26;101421.38;144992;565;6002;-89
2021/11/23 05:30:53;;;;;;;56.85;34.85;;;;;;;15.79;71.25;101419.63;144993;567;6002;-88
2021/11/23 05:33:20;;;;;;;57.85;35.08;;;;;;;15.81;71.40;101423.16;144993;591;6002;-87
2021/11/23 05:40:54;;;;;;;54.55;34.22;;;;;;;15.96;71.33;101430.44;144993;569;6002;-87
2021/11/23 05:43:20;;;;;;;55.03;32.35;;;;;;;15.98;71.01;101423.50;144993;592;6002;-85
2021/11/23 05:45:47;;;;;;;49.35;30.67;;;;;;;15.87;70.80;101420.66;144993;611;6002;-85
2021/11/23 05:48:13;;;;;;;53.90;30.92;;;;;;;15.67;71.94;101420.25;144992;621;6002;-89
2021/11/23 05:50:41;;;;;;;51.40;31.00;;;;;;;15.67;71.95;101415.03;144992;619;6002;-85
2021/11/23 05:53:09;;;;;;;53.67;31.75;;;;;;;15.62;72.05;101423.63;144992;589;6002;-89
2021/11/23 05:55:36;;;;;;;53.80;32.88;;;;;;;15.56;71.68;101420.03;144992;574;6002;-85
2021/11/23 05:58:05;;;;;;;50.78;31.67;;;;;;;15.60;72.17;101421.88;144992;638;6002;-85
2021/11/23 06:00:32;;;;;;;56.50;33.70;;;;;;;15.58;72.43;101418.31;144992;607;6002;-84
2021/11/23 06:02:59;;;;;;;57.00;34.15;;;;;;;15.48;72.40;101424.22;144993;646;6002;-85
2021/11/23 06:05:26;;;;;;;59.65;33.70;;;;;;;15.40;72.32;101421.44;144993;618;6002;-86
2021/11/23 06:07:53;;;;;;;58.50;32.58;;;;;;;15.34;72.42;101430.91;144993;570;6002;-88
2021/11/23 06:10:20;;;;;;;59.47;34.00;;;;;;;15.21;73.49;101424.53;144993;604;6015;-85
2021/11/23 06:12:48;;;;;;;60.28;35.10;;;;;;;15.15;72.97;101424.38;144993;588;6002;-83
2021/11/23 06:15:15;;;;;;;59.63;34.42;;;;;;;15.10;72.95;101424.28;144993;604;6002;-84
2021/11/23 06:17:43;;;;;;;60.58;33.97;;;;;;;15.07;74.15;101437.28;144993;635;6002;-85
2021/11/23 06:20:10;;;;;;;62.72;34.55;;;;;;;15.06;72.91;101430.28;144993;580;6002;-85
2021/11/23 06:22:37;;;;;;;61.90;33.08;;;;;;;15.04;72.82;101438.09;144993;628;6002;-83
2021/11/23 06:25:07;;;;;;;59.55;33.05;;;;;;;15.04;72.99;101442.44;144993;641;6002;-84
2021/11/23 06:27:34;;;;;;;65.18;35.22;;;;;;;15.02;73.32;101438.91;144993;616;6002;-84
2021/11/23 06:30:01;;;;;;;73.10;37.85;;;;;;;15.05;73.17;101447.72;144993;593;6002;-86
2021/11/23 06:32:28;;;;;;;74.30;37.50;;;;;;;15.07;73.01;101442.50;144992;575;6002;-83
2021/11/23 06:34:58;;;;;;;79.93;37.70;;;;;;;15.12;73.07;101442.63;144993;578;6002;-83
2021/11/23 06:37:24;;;;;;;81.47;39.47;;;;;;;15.15;72.59;101447.91;144993;611;6002;-80
2021/11/23 06:39:54;;;;;;;84.20;39.78;;;;;;;15.19;72.91;101453.25;144993;612;6002;-84
2021/11/23 06:42:23;;;;;;;81.82;38.60;;;;;;;15.21;72.82;101454.16;144993;596;6002;-85
2021/11/23 06:44:53;;;;;;;83.45;39.22;;;;;;;15.34;73.23;101451.81;144993;587;6002;-83
2021/11/23 06:47:23;;;;;;;86.05;39.50;;;;;;;15.43;72.88;101454.66;144993;581;6002;-82
2021/11/23 06:49:58;;;;;;;77.85;37.45;;;;;;;15.49;72.86;101452.12;144993;581;6002;-83
2021/11/23 06:52:25;;;;;;;71.93;36.55;;;;;;;15.59;72.81;101443.66;144993;630;6002;-82
2021/11/23 06:55:07;;;;;;;77.00;35.97;;;;;;;15.69;72.88;101449.94;144993;666;6002;-84
2021/11/23 06:57:42;;;;;;;74.85;36.30;;;;;;;15.82;72.43;101451.09;144994;609;5002;-83
2021/11/23 07:00:18;;;;;;;70.07;35.13;;;;;;;15.96;72.29;101447.03;144994;587;5002;-82
2021/11/23 07:03:10;;;;;;;71.93;34.83;;;;;;;16.08;71.57;101446.38;144994;482;5002;-83
2021/11/23 07:05:42;;;;;;;66.15;33.67;;;;;;;16.13;72.09;101446.47;144994;572;5002;-83
2021/11/23 07:08:10;;;;;;;59.20;31.55;;;;;;;16.24;71.68;101452.78;144994;564;5002;-83
2021/11/23 07:10:38;;;;;;;57.83;30.60;;;;;;;16.33;71.30;101444.19;144994;610;5002;-84
2021/11/23 07:13:13;;;;;;;60.63;31.90;;;;;;;16.40;71.51;101445.19;144994;614;5002;-85
2021/11/23 07:15:47;;;;;;;54.72;29.95;;;;;;;16.43;71.28;101440.91;144994;720;5002;-84
2021/11/23 07:18:21;;;;;;;56.40;30.17;;;;;;;16.46;71.19;101437.44;144994;590;5002;-83
2021/11/23 07:21:12;;;;;;;58.47;31.23;;;;;;;16.38;71.24;101439.03;144994;582;5002;-82
2021/11/23 07:23:39;;;;;;;64.85;32.53;;;;;;;16.43;71.05;101443.53;144994;611;5004;-83
2021/11/23 07:26:06;;;;;;;65.05;31.20;;;;;;;16.41;71.31;101442.59;144994;564;5004;-81
2021/11/23 07:28:34;;;;;;;60.78;31.67;;;;;;;16.42;71.56;101447.00;144994;599;5004;-81
2021/11/23 07:31:01;;;;;;;59.60;31.15;;;;;;;16.45;70.90;101447.03;144994;704;5005;-84
2021/11/23 07:33:28;;;;;;;55.88;29.33;;;;;;;16.46;71.26;101451.44;144994;568;5004;-82
2021/11/23 07:35:58;;;;;;;55.50;31.17;;;;;;;16.45;71.21;101454.91;144994;586;5004;-83
2021/11/23 07:38:26;;;;;;;51.30;29.17;;;;;;;16.40;71.07;101458.28;144994;686;5004;-81
2021/11/23 07:40:53;;;;;;;49.47;28.45;;;;;;;16.37;70.94;101467.00;144994;605;5004;-83
2021/11/23 07:43:21;;;;;;;50.88;28.62;;;;;;;16.35;71.71;101459.94;144994;584;5004;-84
2021/11/23 07:45:48;;;;;;;57.17;28.92;;;;;;;16.24;72.04;101473.75;144994;569;5004;-82
2021/11/23 07:48:17;;;;;;;52.25;28.27;;;;;;;16.30;72.42;101480.81;144994;571;5004;-82
2021/11/23 07:50:45;;;;;;;51.33;29.37;;;;;;;16.31;71.97;101488.72;144994;563;5004;-82
2021/11/23 07:53:11;;;;;;;56.25;31.17;;;;;;;16.32;71.60;101495.72;144994;625;5004;-83
2021/11/23 07:55:38;;;;;;;58.38;33.88;;;;;;;16.24;71.58;101494.72;144994;669;5004;-82
2021/11/23 07:58:09;;;;;;;64.57;33.55;;;;;;;16.21;71.81;101492.03;144994;582;5004;-83
2021/11/23 08:00:37;;;;;;;69.12;35.67;;;;;;;16.07;71.95;101497.00;144994;574;5004;-82
2021/11/23 08:03:10;;;;;;;65.65;35.55;;;;;;;16.05;72.42;101487.31;144994;581;5004;-81
2021/11/23 08:05:41;;;;;;;65.22;34.85;;;;;;;16.10;72.44;101489.19;144994;561;5004;-82
2021/11/23 08:08:13;;;;;;;66.00;36.08;;;;;;;16.16;71.96;101495.41;144994;678;5004;-82
2021/11/23 08:10:40;;;;;;;67.15;36.15;;;;;;;16.22;71.75;101499.00;144994;567;5004;-83
2021/11/23 08:13:08;;;;;;;71.00;38.15;;;;;;;16.26;71.85;101505.22;144994;571;5004;-82
2021/11/23 08:15:36;;;;;;;71.97;39.25;;;;;;;16.23;71.47;101498.16;144994;600;5004;-82
2021/11/23 08:18:07;;;;;;;75.95;40.50;;;;;;;16.21;71.64;101494.66;144993;583;5004;-82
2021/11/23 08:20:34;;;;;;;78.87;41.80;;;;;;;16.20;71.68;101500.72;144994;647;5002;-82
2021/11/23 08:23:01;;;;;;;69.37;40.08;;;;;;;16.18;71.45;101494.59;144994;583;5002;-81
2021/11/23 08:25:27;;;;;;;72.95;38.88;;;;;;;16.17;71.56;101484.09;144994;566;5002;-81
2021/11/23 08:27:57;;;;;;;74.97;39.00;;;;;;;16.01;71.58;101481.16;144994;589;5002;-82
2021/11/23 08:30:24;;;;;;;66.75;38.65;;;;;;;15.94;72.76;101482.78;144994;572;5002;-81
2021/11/23 08:32:50;;;;;;;72.80;38.90;;;;;;;15.92;72.32;101479.25;144994;584;5002;-81
2021/11/23 08:35:18;;;;;;;70.18;38.33;;;;;;;15.93;72.19;101475.75;144994;603;5002;-82
2021/11/23 08:37:45;;;;;;;72.80;38.97;;;;;;;15.95;72.63;101474.09;144994;643;5002;-83
2021/11/23 08:40:12;;;;;;;76.07;40.40;;;;;;;15.96;72.15;101467.97;144994;565;5002;-82
2021/11/23 08:42:38;;;;;;;84.50;44.63;;;;;;;15.90;72.35;101470.47;144994;583;5002;-82
2021/11/23 08:45:06;;;;;;;77.10;43.60;;;;;;;15.77;73.11;101474.56;144994;573;5002;-82
2021/11/23 08:47:33;;;;;;;75.37;42.00;;;;;;;15.77;72.95;101485.03;144994;606;5002;-81
2021/11/23 08:50:00;;;;;;;72.47;39.88;;;;;;;15.77;73.01;101485.03;144994;569;5002;-81
2021/11/23 08:52:27;;;;;;;66.90;37.35;;;;;;;15.83;73.14;101475.53;144994;571;5002;-84
2021/11/23 08:55:01;;;;;;;67.40;38.10;;;;;;;15.90;73.17;101475.69;144994;569;5002;-81
2021/11/23 08:57:30;;;;;;;69.05;36.22;;;;;;;15.99;73.19;101490.72;144994;564;5002;-86
2021/11/23 09:00:20;;;;;;;62.35;33.90;;;;;;;16.10;73.05;101493.56;144994;694;5002;-83
2021/11/23 09:02:49;;;;;;;59.60;34.42;;;;;;;16.17;72.71;101495.44;144994;605;5002;-83
2021/11/23 09:05:17;;;;;;;54.55;32.92;;;;;;;16.22;72.54;101492.91;144994;587;5002;-84
2021/11/23 09:07:45;;;;;;;57.42;32.80;;;;;;;16.24;72.54;101499.94;144994;582;5002;-82
2021/11/23 09:10:21;;;;;;;56.15;33.20;;;;;;;16.29;72.47;101510.50;144994;597;5002;-82
2021/11/23 09:12:51;;;;;;;71.65;42.38;;;;;;;16.31;72.87;101508.81;144994;573;5002;-82
2021/11/23 09:15:18;;;;;;;59.97;37.38;;;;;;;16.32;72.73;101511.44;144994;627;5002;-82
2021/11/23 09:17:47;;;;;;;62.85;36.90;;;;;;;16.30;72.88;101513.16;144994;602;5002;-82
2021/11/23 09:20:16;;;;;;;57.35;34.35;;;;;;;16.30;72.95;101518.41;144994;577;5002;-84
2021/11/23 09:22:44;;;;;;;52.10;32.33;;;;;;;16.29;73.01;101516.62;144994;578;5002;-81
2021/11/23 09:25:13;;;;;;;52.67;33.35;;;;;;;16.33;73.26;101521.06;144994;565;5002;-82
2021/11/23 09:27:40;;;;;;;56.83;33.65;;;;;;;16.37;72.97;101518.50;144994;614;5002;-82
2021/11/23 09:30:10;;;;;;;55.25;34.33;;;;;;;16.32;73.10;101521.94;144994;674;5002;-82
2021/11/23 09:32:37;;;;;;;57.47;32.83;;;;;;;16.31;73.21;101514.03;144994;589;5002;-82
2021/11/23 09:35:04;;;;;;;50.35;31.15;;;;;;;16.32;73.41;101514.06;144994;579;5002;-81
2021/11/23 09:37:31;;;;;;;47.95;30.35;;;;;;;16.38;72.95;101507.16;144994;577;5002;-82
2021/11/23 09:39:58;;;;;;;45.83;29.55;;;;;;;16.43;73.06;101511.66;144994;615;5002;-85
2021/11/23 09:42:24;;;;;;;47.97;30.08;;;;;;;16.48;72.98;101512.63;144994;687;5002;-83
2021/11/23 09:44:51;;;;;;;49.95;30.35;;;;;;;16.52;72.96;101516.16;144994;573;5002;-83
2021/11/23 09:47:18;;;;;;;53.17;31.10;;;;;;;16.54;72.86;101518.81;144994;758;5002;-84
2021/11/23 09:49:44;;;;;;;49.75;30.25;;;;;;;16.54;72.87;101522.31;144994;599;5002;-82
2021/11/23 09:52:11;;;;;;;47.17;28.33;;;;;;;16.56;72.78;101522.34;144994;647;5002;-82
2021/11/23 09:54:39;;;;;;;46.80;29.87;;;;;;;16.56;72.79;101524.94;144994;637;5002;-83
2021/11/23 09:57:06;;;;;;;51.78;30.75;;;;;;;16.47;73.03;101518.69;144994;589;5002;-84
2021/11/23 09:59:33;;;;;;;53.78;31.37;;;;;;;16.45;73.16;101515.19;144994;564;5002;-82
2021/11/23 10:02:01;;;;;;;54.80;30.55;;;;;;;16.43;73.15;101508.13;144993;601;5002;-84
2021/11/23 10:04:29;;;;;;;48.40;29.33;;;;;;;16.44;73.39;101507.28;144994;588;5002;-83
2021/11/23 10:07:00;;;;;;;52.65;29.23;;;;;;;16.37;73.39;101502.78;144994;585;5002;-83
2021/11/23 10:09:41;;;;;;;46.70;27.48;;;;;;;16.34;73.82;101503.63;144994;576;5002;-84
2021/11/23 10:12:33;;;;;;;44.20;26.77;;;;;;;16.35;73.64;101494.87;144994;565;5002;-83
2021/11/23 10:15:24;;;;;;;45.38;27.70;;;;;;;16.40;73.61;101500.22;144994;694;5004;-83
2021/11/23 10:17:54;;;;;;;46.22;27.42;;;;;;;16.43;73.68;101500.28;144994;571;5004;-83
2021/11/23 10:20:41;;;;;;;48.25;28.50;;;;;;;16.41;73.65;101487.13;144994;578;5004;-83
2021/11/23 10:23:17;;;;;;;49.55;28.83;;;;;;;16.41;73.70;101488.88;144994;596;5004;-84
2021/11/23 10:26:06;;;;;;;48.65;30.35;;;;;;;16.44;73.77;101489.81;144994;584;5004;-83
2021/11/23 10:28:33;;;;;;;52.05;30.73;;;;;;;16.41;73.73;101484.50;144994;612;5002;-86
2021/11/23 10:31:13;;;;;;;49.72;30.33;;;;;;;16.45;73.89;101477.63;144994;572;5002;-84
2021/11/23 10:33:42;;;;;;;55.85;31.40;;;;;;;16.50;73.71;101489.94;144994;592;5002;-83
2021/11/23 10:36:15;;;;;;;47.78;28.25;;;;;;;16.54;73.75;101488.22;144993;563;5002;-83
2021/11/23 10:38:43;;;;;;;44.88;26.65;;;;;;;16.53;74.00;101483.88;144994;565;5002;-83
2021/11/23 10:41:15;;;;;;;44.13;25.62;;;;;;;16.49;73.99;101484.66;144994;619;5002;-83
2021/11/23 10:43:49;;;;;;;40.88;23.87;;;;;;;16.52;73.96;101489.97;144994;638;5002;-83
2021/11/23 10:46:24;;;;;;;;;;;;;;;16.44;74.53;101500.28;144998;480;5002;-83
2021/11/23 10:49:02;;;;;;;34.90;21.60;;;;;;;16.45;74.42;101507.31;144997;566;5002;-84
2021/11/23 10:51:41;;;;;;;34.63;21.85;;;;;;;16.48;74.12;101511.72;144994;643;5002;-84
2021/11/23 10:54:18;;;;;;;31.25;19.70;;;;;;;16.41;74.54;101505.47;144994;627;5002;-83
2021/11/23 10:57:21;;;;;;;31.55;19.70;;;;;;;16.36;74.27;101511.50;144994;670;5002;-84
2021/11/23 10:59:48;;;;;;;32.47;19.80;;;;;;;16.24;74.69;101510.44;144994;595;5004;-84
2021/11/23 11:02:16;;;;;;;32.30;19.75;;;;;;;16.22;74.60;101509.50;144994;572;5004;-84
2021/11/23 11:04:52;;;;;;;31.85;19.35;;;;;;;16.26;74.61;101499.97;144994;578;5004;-83
2021/11/23 11:07:21;;;;;;;27.95;18.75;;;;;;;16.18;74.84;101499.81;144994;577;5004;-84
2021/11/23 11:09:50;;;;;;;29.08;19.05;;;;;;;16.19;74.73;101498.94;144994;643;5004;-83
2021/11/23 11:12:16;;;;;;;30.90;20.50;;;;;;;16.24;74.71;101496.41;144994;651;5004;-83
2021/11/23 11:14:48;;;;;;;31.42;20.88;;;;;;;16.20;75.24;101495.50;144994;652;5004;-84
2021/11/23 11:17:16;;;;;;;35.35;22.02;;;;;;;16.09;75.85;101492.66;144994;570;5004;-83
2021/11/23 11:19:51;;;;;;;31.35;20.85;;;;;;;16.01;75.82;101489.00;144994;589;5004;-82
2021/11/23 11:22:25;;;;;;;32.70;20.55;;;;;;;15.89;76.20;101494.91;144994;570;5004;-84
2021/11/23 11:25:10;;;;;;;34.75;22.13;;;;;;;15.95;75.68;101492.41;144994;556;5004;-83
2021/11/23 11:27:38;;;;;;;;;;;;;;;15.96;75.41;101485.44;144998;908;5004;-86
2021/11/23 11:30:36;;;;;;;30.17;20.20;;;;;;;15.99;75.56;101487.19;144998;563;5000;-84
2021/11/23 11:33:31;;;;;;;33.20;20.77;;;;;;;16.09;75.33;101482.19;144994;571;4568;-84
2021/11/23 11:35:58;;;;;;;31.25;20.30;;;;;;;16.17;75.41;101494.56;144994;686;4571;-84
2021/11/23 11:38:41;;;;;;;32.50;20.08;;;;;;;16.19;75.13;101485.84;144992;594;6002;-84
2021/11/23 11:41:36;;;;;;;31.55;19.67;;;;;;;16.30;74.53;101489.59;144992;569;6002;-85
2021/11/23 11:44:20;;;;;;;30.15;19.00;;;;;;;16.31;74.36;101493.94;144992;562;6004;-86
2021/11/23 11:47:05;;;;;;;29.52;19.75;;;;;;;16.28;74.38;101495.63;144992;633;6004;-84
2021/11/23 11:49:56;;;;;;;26.98;18.02;;;;;;;16.23;74.45;101494.69;144992;574;6004;-84
2021/11/23 11:52:25;;;;;;;32.55;20.02;;;;;;;16.22;74.65;101493.78;144992;568;6004;-83
2021/11/23 11:55:17;;;;;;;29.80;19.05;;;;;;;16.09;75.06;101497.91;144992;565;6004;-84
2021/11/23 11:57:49;;;;;;;30.02;19.98;;;;;;;16.09;75.06;101492.66;144992;649;6002;-83
2021/11/23 12:00:36;;;;;;;28.80;20.20;;;;;;;16.08;74.82;101493.53;144992;571;6002;-83
2021/11/23 12:03:36;;;;;;;;;;;;;;;16.06;74.95;101495.22;144997;910;6002;-84
2021/11/23 12:06:07;;;;;;;29.87;20.33;;;;;;;16.07;74.87;101494.37;144997;568;6000;-83